Time;durP1;ratioP1;P1;durP2;ratioP2;P2;SDS_P1;SDS_P2;PMS_P1;PMS_P2;Temp;Humidity;BMP_temperature;BMP_pressure;BME280_temperature;BME280_humidity;BME280_pressure;Samples;Min_cycle;Max_cycle;Signal;HPM_P1;HPM_P2
2024/03/31 00:01:12;;;;;;;10.85;4.75;;;;;;;;;;5071868;28;20056;-65
2024/03/31 00:03:39;;;;;;;9.52;4.38;;;;;;;;;;5072171;28;20056;-65
2024/03/31 00:06:08;;;;;;;10.68;4.80;;;;;;;;;;5071858;28;20048;-65
2024/03/31 00:08:33;;;;;;;9.10;4.50;;;;;;;;;;5066359;28;20060;-64
2024/03/31 00:11:03;;;;;;;11.38;5.10;;;;;;;;;;5071482;28;20316;-65
2024/03/31 00:13:28;;;;;;;9.43;4.50;;;;;;;;;;5067989;28;20147;-64
2024/03/31 00:15:55;;;;;;;7.80;3.65;;;;;;;;;;5042939;28;20056;-64
2024/03/31 00:18:21;;;;;;;8.10;4.10;;;;;;;;;;5044396;28;20089;-64
2024/03/31 00:20:47;;;;;;;7.90;3.78;;;;;;;;;;5054941;28;20075;-65
2024/03/31 00:23:13;;;;;;;7.60;3.78;;;;;;;;;;5042279;28;20044;-65
2024/03/31 00:25:40;;;;;;;8.40;4.32;;;;;;;;;;5055799;28;20059;-64
2024/03/31 00:28:07;;;;;;;10.60;4.03;;;;;;;;;;5062904;28;20094;-64
2024/03/31 00:30:34;;;;;;;10.13;5.20;;;;;;;;;;5055415;28;20056;-65
2024/03/31 00:32:59;;;;;;;10.70;5.03;;;;;;;;;;5060089;28;20060;-64
2024/03/31 00:35:26;;;;;;;8.48;3.72;;;;;;;;;;5057827;28;20105;-65
2024/03/31 00:37:52;;;;;;;6.40;3.22;;;;;;;;;;5059179;28;20442;-64
2024/03/31 00:40:18;;;;;;;6.75;3.00;;;;;;;;;;5058593;28;20117;-64
2024/03/31 00:42:44;;;;;;;6.35;2.92;;;;;;;;;;5055977;28;20087;-63
2024/03/31 00:45:14;;;;;;;5.93;3.00;;;;;;;;;;5055023;28;20496;-64
2024/03/31 00:47:39;;;;;;;7.50;2.97;;;;;;;;;;5060516;28;20059;-64
2024/03/31 00:50:06;;;;;;;6.55;3.05;;;;;;;;;;5057351;28;20048;-64
2024/03/31 00:52:31;;;;;;;7.50;3.63;;;;;;;;;;5048086;28;20214;-64
2024/03/31 00:54:58;;;;;;;7.68;3.65;;;;;;;;;;5053356;28;20078;-65
2024/03/31 00:57:24;;;;;;;8.18;3.53;;;;;;;;;;5072084;28;20056;-64
2024/03/31 00:59:51;;;;;;;12.25;4.43;;;;;;;;;;5059779;28;20067;-64
2024/03/31 01:02:18;;;;;;;10.43;4.43;;;;;;;;;;5059638;28;20086;-64
2024/03/31 01:04:45;;;;;;;12.68;5.10;;;;;;;;;;5048181;28;20370;-65
2024/03/31 01:07:10;;;;;;;12.15;5.00;;;;;;;;;;5057695;28;20056;-64
2024/03/31 01:09:37;;;;;;;11.77;4.80;;;;;;;;;;5058923;28;20056;-65
2024/03/31 01:12:03;;;;;;;12.38;4.72;;;;;;;;;;5058981;28;20151;-64
2024/03/31 01:14:30;;;;;;;12.75;5.53;;;;;;;;;;5033841;28;20055;-64
2024/03/31 01:16:56;;;;;;;12.15;5.72;;;;;;;;;;5068346;28;20044;-64
2024/03/31 01:19:24;;;;;;;11.55;5.40;;;;;;;;;;5058661;28;20063;-64
2024/03/31 01:21:50;;;;;;;11.52;5.07;;;;;;;;;;5054521;28;20053;-64
2024/03/31 01:24:18;;;;;;;14.70;6.00;;;;;;;;;;5054932;28;20094;-65
2024/03/31 01:26:43;;;;;;;11.48;5.00;;;;;;;;;;5051092;28;20229;-65
2024/03/31 01:29:10;;;;;;;13.88;6.05;;;;;;;;;;5057326;28;20419;-64
2024/03/31 01:31:36;;;;;;;13.88;6.00;;;;;;;;;;5059057;28;20064;-64
2024/03/31 01:34:03;;;;;;;11.73;4.88;;;;;;;;;;5059765;28;20064;-65
2024/03/31 01:36:29;;;;;;;11.43;5.00;;;;;;;;;;5044063;28;20156;-67
2024/03/31 01:38:55;;;;;;;12.45;5.55;;;;;;;;;;5052863;28;20052;-64
2024/03/31 01:41:22;;;;;;;11.57;5.20;;;;;;;;;;5058371;28;20128;-63
2024/03/31 01:43:49;;;;;;;13.50;5.88;;;;;;;;;;5058999;28;20048;-65
2024/03/31 01:46:15;;;;;;;13.55;5.53;;;;;;;;;;5048180;28;20138;-64
2024/03/31 01:48:42;;;;;;;13.48;5.53;;;;;;;;;;5053380;28;20052;-64
2024/03/31 01:51:07;;;;;;;15.80;6.05;;;;;;;;;;5057387;28;20075;-64
2024/03/31 01:53:34;;;;;;;14.25;5.93;;;;;;;;;;5058409;28;20056;-64
2024/03/31 01:56:00;;;;;;;15.60;6.25;;;;;;;;;;5051788;28;20107;-64
2024/03/31 01:58:28;;;;;;;12.60;4.90;;;;;;;;;;5053298;28;20668;-64
2024/03/31 02:00:54;;;;;;;13.40;4.70;;;;;;;;;;5016570;28;20052;-64
2024/03/31 02:03:21;;;;;;;11.73;5.35;;;;;;;;;;5055386;28;20169;-64
2024/03/31 02:05:46;;;;;;;11.27;4.07;;;;;;;;;;5057027;28;20114;-65
2024/03/31 02:08:13;;;;;;;11.38;4.10;;;;;;;;;;5060405;28;20198;-65
2024/03/31 02:10:39;;;;;;;11.88;4.40;;;;;;;;;;5059819;28;20052;-65
2024/03/31 02:13:05;;;;;;;11.50;4.70;;;;;;;;;;5071153;28;20196;-65
2024/03/31 02:15:34;;;;;;;7.88;3.40;;;;;;;;;;5053402;28;20299;-64
2024/03/31 02:18:01;;;;;;;8.20;3.55;;;;;;;;;;5058747;28;20059;-65
2024/03/31 02:20:27;;;;;;;9.98;4.18;;;;;;;;;;5043882;28;20056;-66
2024/03/31 02:22:53;;;;;;;8.75;3.45;;;;;;;;;;5063327;28;20134;-65
2024/03/31 02:25:19;;;;;;;8.07;3.55;;;;;;;;;;5063700;28;20083;-65
2024/03/31 02:27:46;;;;;;;10.30;4.22;;;;;;;;;;5066893;28;20289;-65
2024/03/31 02:30:11;;;;;;;8.98;3.95;;;;;;;;;;5050552;28;20056;-67
2024/03/31 02:32:39;;;;;;;8.18;3.72;;;;;;;;;;5032585;28;20067;-65
2024/03/31 02:35:05;;;;;;;9.30;4.07;;;;;;;;;;5062390;28;20070;-64
2024/03/31 02:37:32;;;;;;;9.43;3.63;;;;;;;;;;5056367;28;20083;-65
2024/03/31 02:39:58;;;;;;;9.57;4.03;;;;;;;;;;5058004;28;20064;-65
2024/03/31 02:42:24;;;;;;;7.95;3.60;;;;;;;;;;5053405;28;20094;-64
2024/03/31 02:44:50;;;;;;;10.40;3.72;;;;;;;;;;5058318;28;20214;-64
2024/03/31 02:47:19;;;;;;;8.88;3.70;;;;;;;;;;5055149;28;20232;-66
2024/03/31 02:49:47;;;;;;;10.05;3.95;;;;;;;;;;5058242;28;20155;-67
2024/03/31 02:52:13;;;;;;;8.90;3.72;;;;;;;;;;5052930;28;20071;-66
2024/03/31 02:54:39;;;;;;;9.20;4.22;;;;;;;;;;5072992;28;20125;-65
2024/03/31 02:59:37;;;;;;;10.25;4.28;;;;;;;;;;5031655;28;20072;-65
2024/03/31 03:02:03;;;;;;;9.88;3.88;;;;;;;;;;5027553;28;20057;-65
2024/03/31 03:04:30;;;;;;;8.55;4.00;;;;;;;;;;5014029;28;20056;-65
2024/03/31 03:06:58;;;;;;;11.03;4.87;;;;;;;;;;5014435;28;20056;-65
2024/03/31 03:09:26;;;;;;;10.38;4.22;;;;;;;;;;5006876;28;20056;-66
2024/03/31 03:11:52;;;;;;;11.53;4.20;;;;;;;;;;5014581;28;20068;-64
2024/03/31 03:14:19;;;;;;;9.70;3.97;;;;;;;;;;5037812;28;20049;-65
2024/03/31 03:16:44;;;;;;;10.02;4.60;;;;;;;;;;5017657;28;20092;-67
2024/03/31 03:19:12;;;;;;;13.98;4.50;;;;;;;;;;5019386;28;20210;-65
2024/03/31 03:21:37;;;;;;;9.70;4.47;;;;;;;;;;5021778;28;20183;-65
2024/03/31 03:24:06;;;;;;;10.10;4.07;;;;;;;;;;5023855;28;20064;-66
2024/03/31 03:26:31;;;;;;;;;;;;;;;;;;5047527;28;20114;-65
2024/03/31 03:28:59;;;;;;;9.23;3.72;;;;;;;;;;5019762;28;20014;-65
2024/03/31 03:31:25;;;;;;;8.80;4.15;;;;;;;;;;5010851;28;20052;-65
2024/03/31 03:33:51;;;;;;;8.73;3.72;;;;;;;;;;5044335;28;20076;-65
2024/03/31 03:36:17;;;;;;;7.88;3.38;;;;;;;;;;5036285;28;20064;-66
2024/03/31 03:38:47;;;;;;;7.80;3.33;;;;;;;;;;5037000;28;20065;-65
2024/03/31 03:41:14;;;;;;;9.45;3.58;;;;;;;;;;5032069;28;20087;-65
2024/03/31 03:43:40;;;;;;;8.20;3.15;;;;;;;;;;5018196;28;20140;-66
2024/03/31 03:46:06;;;;;;;7.93;3.63;;;;;;;;;;5021369;28;20053;-65
2024/03/31 03:48:34;;;;;;;8.68;4.03;;;;;;;;;;5022080;28;20057;-65
2024/03/31 03:51:01;;;;;;;8.57;3.78;;;;;;;;;;5027739;28;20048;-64
2024/03/31 03:53:28;;;;;;;7.82;3.90;;;;;;;;;;5017599;28;20068;-67
2024/03/31 03:55:55;;;;;;;8.52;3.70;;;;;;;;;;5022591;28;20067;-66
2024/03/31 03:58:23;;;;;;;9.80;3.78;;;;;;;;;;5021264;28;20163;-65
2024/03/31 04:00:50;;;;;;;8.75;3.60;;;;;;;;;;5020034;28;20057;-65
2024/03/31 04:03:17;;;;;;;8.52;3.60;;;;;;;;;;5008420;28;20060;-66
2024/03/31 04:05:52;;;;;;;7.82;3.17;;;;;;;;;;5022455;28;20037;-66
2024/03/31 04:08:19;;;;;;;9.15;3.97;;;;;;;;;;5040646;28;20076;-66
2024/03/31 04:10:44;;;;;;;9.82;3.55;;;;;;;;;;5025237;28;20052;-64
2024/03/31 04:13:11;;;;;;;7.93;3.58;;;;;;;;;;5009022;28;20068;-65
2024/03/31 04:15:40;;;;;;;6.72;3.13;;;;;;;;;;5006183;28;20183;-64
2024/03/31 04:18:07;;;;;;;9.70;4.00;;;;;;;;;;5012434;28;20080;-64
2024/03/31 04:20:40;;;;;;;8.90;3.13;;;;;;;;;;5031883;28;20061;-64
2024/03/31 04:23:08;;;;;;;7.47;2.90;;;;;;;;;;4977162;28;20060;-64
2024/03/31 04:25:35;;;;;;;8.18;3.78;;;;;;;;;;5037699;28;20139;-65
2024/03/31 04:28:01;;;;;;;9.35;3.70;;;;;;;;;;5039878;28;20060;-64
2024/03/31 04:30:28;;;;;;;8.63;3.70;;;;;;;;;;5044580;28;20056;-65
2024/03/31 04:32:55;;;;;;;8.10;3.60;;;;;;;;;;5007780;28;20057;-67
2024/03/31 04:35:21;;;;;;;9.98;3.63;;;;;;;;;;5014485;28;20055;-67
2024/03/31 04:37:48;;;;;;;10.80;4.15;;;;;;;;;;5021080;28;20048;-65
2024/03/31 04:40:15;;;;;;;8.20;3.38;;;;;;;;;;5026548;28;20060;-66
2024/03/31 04:42:40;;;;;;;7.85;3.55;;;;;;;;;;5042846;28;20083;-65
2024/03/31 04:45:09;;;;;;;7.63;3.45;;;;;;;;;;5039590;28;20056;-64
2024/03/31 04:47:35;;;;;;;7.40;3.17;;;;;;;;;;5041326;28;20175;-67
2024/03/31 04:50:05;;;;;;;6.70;3.10;;;;;;;;;;5021887;28;20062;-64
2024/03/31 04:52:31;;;;;;;8.05;3.65;;;;;;;;;;5004525;28;20061;-65
2024/03/31 04:54:58;;;;;;;8.25;3.25;;;;;;;;;;5037199;28;20057;-65
2024/03/31 04:57:24;;;;;;;9.85;4.05;;;;;;;;;;5035273;28;20091;-66
2024/03/31 04:59:50;;;;;;;7.00;3.25;;;;;;;;;;5039385;28;20163;-65
2024/03/31 05:02:18;;;;;;;7.28;3.45;;;;;;;;;;5029975;28;20230;-68
2024/03/31 05:04:45;;;;;;;7.68;3.35;;;;;;;;;;5043780;28;20084;-66
2024/03/31 05:07:15;;;;;;;7.68;3.33;;;;;;;;;;5027304;28;20062;-65
2024/03/31 05:09:44;;;;;;;6.05;2.65;;;;;;;;;;5028524;28;20064;-65
2024/03/31 05:12:10;;;;;;;6.95;3.00;;;;;;;;;;4993745;28;20053;-67
2024/03/31 05:14:37;;;;;;;6.57;3.22;;;;;;;;;;5020141;28;20079;-66
2024/03/31 05:17:03;;;;;;;8.38;3.25;;;;;;;;;;5020402;28;20060;-66
2024/03/31 05:19:30;;;;;;;7.10;3.35;;;;;;;;;;5036965;28;20053;-65
2024/03/31 05:21:56;;;;;;;7.72;3.10;;;;;;;;;;5033151;28;20064;-67
2024/03/31 05:24:24;;;;;;;7.18;3.08;;;;;;;;;;5022417;28;20057;-66
2024/03/31 05:26:50;;;;;;;7.10;3.22;;;;;;;;;;5020133;28;20529;-65
2024/03/31 05:29:19;;;;;;;7.70;3.28;;;;;;;;;;5018056;28;20053;-65
2024/03/31 05:31:45;;;;;;;6.45;3.20;;;;;;;;;;4991713;28;20893;-64
2024/03/31 05:34:12;;;;;;;7.20;3.10;;;;;;;;;;5031658;28;20917;-65
2024/03/31 05:36:37;;;;;;;6.22;3.22;;;;;;;;;;5038036;28;20068;-64
2024/03/31 05:39:04;;;;;;;8.32;4.03;;;;;;;;;;5026453;28;20067;-65
2024/03/31 05:41:34;;;;;;;6.72;3.00;;;;;;;;;;5012289;28;20052;-65
2024/03/31 05:44:03;;;;;;;8.32;3.67;;;;;;;;;;5021889;28;20057;-66
2024/03/31 05:46:29;;;;;;;7.95;3.70;;;;;;;;;;5025158;28;20048;-64
2024/03/31 05:48:56;;;;;;;7.95;3.60;;;;;;;;;;5022741;28;20079;-65
2024/03/31 05:51:21;;;;;;;10.52;3.75;;;;;;;;;;5019963;28;20140;-65
2024/03/31 05:53:48;;;;;;;7.78;3.50;;;;;;;;;;5015768;28;20057;-65
2024/03/31 05:56:14;;;;;;;8.40;3.97;;;;;;;;;;5023618;28;20049;-64
2024/03/31 05:58:42;;;;;;;7.15;3.35;;;;;;;;;;5021217;28;20068;-65
2024/03/31 06:01:08;;;;;;;9.32;4.07;;;;;;;;;;4988533;28;20073;-64
2024/03/31 06:03:37;;;;;;;8.82;3.88;;;;;;;;;;5020013;28;20061;-65
2024/03/31 06:06:03;;;;;;;10.55;4.20;;;;;;;;;;5018011;28;20176;-65
2024/03/31 06:08:30;;;;;;;7.80;3.35;;;;;;;;;;5014923;28;20069;-65
2024/03/31 06:10:57;;;;;;;9.52;4.35;;;;;;;;;;5014010;28;20073;-64
2024/03/31 06:13:23;;;;;;;7.82;4.10;;;;;;;;;;5009563;28;20095;-64
2024/03/31 06:15:54;;;;;;;9.23;4.28;;;;;;;;;;5014899;28;20053;-65
2024/03/31 06:18:20;;;;;;;8.93;4.43;;;;;;;;;;5017764;28;20061;-65
2024/03/31 06:20:46;;;;;;;9.38;4.43;;;;;;;;;;5015270;28;20053;-65
2024/03/31 06:23:22;;;;;;;8.05;4.07;;;;;;;;;;4950518;28;20195;-65
2024/03/31 06:25:55;;;;;;;9.20;4.00;;;;;;;;;;5036724;28;20048;-66
2024/03/31 06:28:22;;;;;;;9.25;4.30;;;;;;;;;;5018730;28;20056;-65
2024/03/31 06:30:48;;;;;;;11.45;5.00;;;;;;;;;;5021173;28;20052;-67
2024/03/31 06:33:16;;;;;;;11.18;4.88;;;;;;;;;;5016280;28;20067;-64
2024/03/31 06:35:42;;;;;;;11.27;4.15;;;;;;;;;;5030532;28;20068;-65
2024/03/31 06:38:08;;;;;;;13.93;5.72;;;;;;;;;;5017453;28;20057;-65
2024/03/31 06:40:35;;;;;;;9.55;5.03;;;;;;;;;;5018018;28;20457;-64
2024/03/31 06:43:02;;;;;;;11.50;5.88;;;;;;;;;;4972666;28;20041;-64
2024/03/31 06:45:28;;;;;;;12.18;5.40;;;;;;;;;;5029171;28;20064;-67
2024/03/31 06:47:57;;;;;;;12.70;5.75;;;;;;;;;;5015842;28;20056;-65
2024/03/31 06:50:25;;;;;;;13.15;5.72;;;;;;;;;;5020594;28;20132;-64
2024/03/31 06:52:52;;;;;;;14.05;6.43;;;;;;;;;;5019025;28;20041;-65
2024/03/31 06:55:20;;;;;;;13.55;6.03;;;;;;;;;;5007847;28;20233;-65
2024/03/31 06:57:47;;;;;;;15.13;6.85;;;;;;;;;;5015872;28;20081;-65
2024/03/31 07:00:17;;;;;;;16.42;7.43;;;;;;;;;;5022905;28;20108;-64
2024/03/31 07:02:48;;;;;;;17.02;6.72;;;;;;;;;;5013598;28;20062;-65
2024/03/31 07:05:14;;;;;;;15.57;6.55;;;;;;;;;;5013457;28;20893;-65
2024/03/31 07:07:44;;;;;;;18.13;7.95;;;;;;;;;;5007188;28;20278;-66
2024/03/31 07:10:09;;;;;;;17.35;6.70;;;;;;;;;;5015369;28;20140;-66
2024/03/31 07:12:36;;;;;;;14.18;6.80;;;;;;;;;;5002486;28;20046;-66
2024/03/31 07:15:05;;;;;;;15.27;6.55;;;;;;;;;;5014994;28;20056;-67
2024/03/31 07:17:36;;;;;;;10.65;5.18;;;;;;;;;;5009765;28;20920;-66
2024/03/31 07:20:09;;;;;;;16.33;7.03;;;;;;;;;;5014473;28;20088;-65
2024/03/31 07:22:36;;;;;;;16.80;7.53;;;;;;;;;;4975131;28;20128;-64
2024/03/31 07:25:06;;;;;;;19.90;9.43;;;;;;;;;;5019939;28;21018;-65
2024/03/31 07:27:32;;;;;;;19.35;8.20;;;;;;;;;;5011771;28;20340;-65
2024/03/31 07:29:58;;;;;;;17.73;7.95;;;;;;;;;;5018419;28;20365;-65
2024/03/31 07:32:25;;;;;;;19.20;8.98;;;;;;;;;;4994490;28;20049;-65
2024/03/31 07:34:51;;;;;;;22.25;9.23;;;;;;;;;;4998094;28;20065;-65
2024/03/31 07:37:23;;;;;;;20.45;8.75;;;;;;;;;;4997672;28;20057;-65
2024/03/31 07:39:50;;;;;;;19.67;9.20;;;;;;;;;;5023353;28;20057;-65
2024/03/31 07:42:19;;;;;;;20.98;8.77;;;;;;;;;;5009967;28;20083;-65
2024/03/31 07:44:45;;;;;;;21.20;9.65;;;;;;;;;;5006963;28;20508;-65
2024/03/31 07:47:12;;;;;;;20.92;9.40;;;;;;;;;;5039171;28;20374;-65
2024/03/31 07:49:38;;;;;;;21.48;9.68;;;;;;;;;;5002440;28;20511;-65
2024/03/31 07:52:06;;;;;;;21.20;9.45;;;;;;;;;;5001642;28;20218;-65
2024/03/31 07:54:32;;;;;;;17.05;7.75;;;;;;;;;;5042361;28;20064;-66
2024/03/31 07:57:01;;;;;;;18.48;9.00;;;;;;;;;;5018201;28;20122;-65
2024/03/31 07:59:29;;;;;;;19.08;8.75;;;;;;;;;;5032206;28;20056;-66
2024/03/31 08:01:55;;;;;;;19.70;8.82;;;;;;;;;;5008912;28;20056;-65
2024/03/31 08:04:21;;;;;;;19.35;9.68;;;;;;;;;;5043317;28;20056;-66
2024/03/31 08:06:48;;;;;;;24.50;10.18;;;;;;;;;;5019222;28;20068;-65
2024/03/31 08:09:17;;;;;;;22.10;9.63;;;;;;;;;;5018375;28;20067;-65
2024/03/31 08:11:44;;;;;;;;;;;;;;;;;;5022208;28;20050;-65
2024/03/31 08:14:09;;;;;;;17.70;8.02;;;;;;;;;;5043780;28;19929;-65
2024/03/31 08:16:38;;;;;;;22.45;8.95;;;;;;;;;;5018726;28;20063;-67
2024/03/31 08:19:04;;;;;;;;;;;;;;;;;;5021530;28;20056;-65
2024/03/31 08:21:31;;;;;;;16.50;7.75;;;;;;;;;;4981585;28;20045;-66
2024/03/31 08:23:57;;;;;;;20.25;7.70;;;;;;;;;;5053822;28;20057;-65
2024/03/31 08:26:23;;;;;;;15.82;7.28;;;;;;;;;;5057358;28;20056;-66
2024/03/31 08:28:49;;;;;;;15.15;7.25;;;;;;;;;;5036941;28;20060;-65
2024/03/31 08:31:17;;;;;;;16.48;7.75;;;;;;;;;;5014517;28;20052;-66
2024/03/31 08:33:46;;;;;;;14.55;6.38;;;;;;;;;;4997764;28;20099;-63
2024/03/31 08:36:13;;;;;;;15.43;6.18;;;;;;;;;;5019404;28;20048;-65
2024/03/31 08:38:51;;;;;;;20.33;6.80;;;;;;;;;;5042479;28;20078;-64
2024/03/31 08:41:29;;;;;;;18.38;7.20;;;;;;;;;;5010314;28;20056;-64
2024/03/31 08:43:59;;;;;;;21.30;6.95;;;;;;;;;;5023608;28;20057;-64
2024/03/31 08:46:26;;;;;;;14.82;6.53;;;;;;;;;;5018498;28;20049;-64
2024/03/31 08:48:53;;;;;;;14.60;6.93;;;;;;;;;;5021101;28;20148;-66
2024/03/31 08:51:20;;;;;;;13.98;6.03;;;;;;;;;;5017222;28;20146;-63
2024/03/31 08:53:48;;;;;;;17.95;7.80;;;;;;;;;;5003416;28;20169;-65
2024/03/31 08:56:15;;;;;;;17.33;8.17;;;;;;;;;;5025069;28;20055;-64
2024/03/31 08:58:42;;;;;;;16.50;8.07;;;;;;;;;;5038739;28;20082;-64
2024/03/31 09:01:14;;;;;;;17.15;7.93;;;;;;;;;;5021254;28;20057;-64
2024/03/31 09:03:41;;;;;;;16.50;7.75;;;;;;;;;;5019613;28;20147;-64
2024/03/31 09:06:09;;;;;;;19.60;8.13;;;;;;;;;;5025272;28;20115;-64
2024/03/31 09:08:35;;;;;;;19.10;8.30;;;;;;;;;;5044620;28;20065;-64
2024/03/31 09:11:03;;;;;;;19.10;8.20;;;;;;;;;;5040688;28;20119;-65
2024/03/31 09:13:29;;;;;;;18.40;7.38;;;;;;;;;;5007397;28;20320;-64
2024/03/31 09:15:56;;;;;;;15.45;7.47;;;;;;;;;;5021744;28;20092;-65
2024/03/31 09:18:22;;;;;;;19.15;8.27;;;;;;;;;;5021254;28;20080;-63
2024/03/31 09:20:49;;;;;;;17.70;8.07;;;;;;;;;;5021525;28;20136;-63
2024/03/31 09:23:23;;;;;;;17.33;8.60;;;;;;;;;;5016074;28;20064;-63
2024/03/31 09:25:49;;;;;;;18.20;8.30;;;;;;;;;;5040978;28;20057;-65
2024/03/31 09:28:17;;;;;;;16.63;7.00;;;;;;;;;;5025111;28;20040;-65
2024/03/31 09:30:42;;;;;;;16.98;6.55;;;;;;;;;;5019630;28;20056;-65
2024/03/31 09:33:10;;;;;;;18.30;8.45;;;;;;;;;;5008449;28;20051;-66
2024/03/31 09:35:39;;;;;;;22.27;9.03;;;;;;;;;;5020383;28;20059;-66
2024/03/31 09:38:07;;;;;;;18.27;8.52;;;;;;;;;;5040968;28;20619;-64
2024/03/31 09:40:34;;;;;;;18.77;8.73;;;;;;;;;;5039769;28;20075;-63
2024/03/31 09:43:02;;;;;;;21.20;8.30;;;;;;;;;;5014018;28;20052;-64
2024/03/31 09:45:29;;;;;;;20.05;8.02;;;;;;;;;;5036053;28;20355;-65
2024/03/31 09:48:03;;;;;;;18.38;8.35;;;;;;;;;;5059937;28;20064;-64
2024/03/31 09:50:35;;;;;;;17.73;8.27;;;;;;;;;;5038974;28;20062;-63
2024/03/31 09:53:04;;;;;;;22.27;8.25;;;;;;;;;;5024504;28;20076;-65
2024/03/31 09:55:37;;;;;;;18.17;7.93;;;;;;;;;;5007515;28;20392;-64
2024/03/31 09:58:08;;;;;;;22.45;10.93;;;;;;;;;;5029114;28;20155;-63
2024/03/31 10:00:34;;;;;;;21.45;7.97;;;;;;;;;;5011408;28;21086;-64
2024/03/31 10:03:07;;;;;;;18.33;7.68;;;;;;;;;;5004325;28;20057;-63
2024/03/31 10:05:36;;;;;;;13.00;5.82;;;;;;;;;;5014614;28;20080;-65
2024/03/31 10:08:04;;;;;;;20.75;8.35;;;;;;;;;;5021061;28;20056;-65
2024/03/31 10:10:32;;;;;;;15.75;7.43;;;;;;;;;;5025580;28;20063;-65
2024/03/31 10:13:01;;;;;;;14.77;6.55;;;;;;;;;;5010841;28;20141;-64
2024/03/31 10:15:32;;;;;;;25.20;13.15;;;;;;;;;;5028608;28;20056;-64
2024/03/31 10:18:00;;;;;;;18.73;7.85;;;;;;;;;;5040821;28;20064;-65
2024/03/31 10:20:27;;;;;;;13.57;6.68;;;;;;;;;;5021805;28;20052;-66
2024/03/31 10:22:55;;;;;;;21.90;6.63;;;;;;;;;;5024647;28;20056;-65
2024/03/31 10:25:24;;;;;;;14.50;5.93;;;;;;;;;;5016836;28;20044;-66
2024/03/31 10:27:53;;;;;;;11.93;4.78;;;;;;;;;;5021837;28;21044;-66
2024/03/31 10:30:23;;;;;;;17.10;5.68;;;;;;;;;;5021856;28;20061;-68
2024/03/31 10:32:51;;;;;;;14.32;6.05;;;;;;;;;;5006427;28;20518;-64
2024/03/31 10:35:17;;;;;;;17.10;6.63;;;;;;;;;;5037286;28;20059;-67
2024/03/31 10:37:45;;;;;;;16.45;6.03;;;;;;;;;;5015607;28;20048;-66
2024/03/31 10:40:13;;;;;;;17.42;6.75;;;;;;;;;;5039576;28;20133;-66
2024/03/31 10:42:40;;;;;;;16.27;6.30;;;;;;;;;;5009476;28;20053;-65
2024/03/31 10:45:14;;;;;;;25.97;6.77;;;;;;;;;;5022071;28;20045;-67
2024/03/31 10:47:45;;;;;;;18.77;6.45;;;;;;;;;;5017086;28;20306;-69
2024/03/31 10:50:11;;;;;;;12.30;5.40;;;;;;;;;;5042382;28;20067;-65
2024/03/31 10:52:40;;;;;;;12.73;5.57;;;;;;;;;;5005618;28;20136;-67
2024/03/31 10:55:09;;;;;;;14.00;5.15;;;;;;;;;;5027197;28;20048;-65
2024/03/31 10:57:41;;;;;;;26.27;10.73;;;;;;;;;;5036275;28;20165;-66
2024/03/31 11:00:09;;;;;;;21.50;8.35;;;;;;;;;;5022715;28;20083;-65
2024/03/31 11:02:40;;;;;;;16.20;5.70;;;;;;;;;;4998124;28;20202;-64
2024/03/31 11:05:13;;;;;;;13.32;5.15;;;;;;;;;;5040871;28;20045;-66
2024/03/31 11:07:54;;;;;;;17.00;5.30;;;;;;;;;;5012210;28;20053;-65
2024/03/31 11:10:22;;;;;;;13.63;5.97;;;;;;;;;;5010599;28;20063;-66
2024/03/31 11:12:49;;;;;;;25.27;5.95;;;;;;;;;;5002125;28;20072;-66
2024/03/31 11:15:21;;;;;;;8.10;2.95;;;;;;;;;;5014392;28;20071;-67
2024/03/31 11:17:49;;;;;;;14.65;6.47;;;;;;;;;;5007193;28;20125;-66
2024/03/31 11:20:20;;;;;;;24.55;5.55;;;;;;;;;;5043397;28;20079;-65
2024/03/31 11:22:47;;;;;;;13.68;4.88;;;;;;;;;;5001758;28;20056;-69
2024/03/31 11:25:19;;;;;;;18.98;5.07;;;;;;;;;;5028337;28;20065;-66
2024/03/31 11:27:48;;;;;;;14.45;5.25;;;;;;;;;;5009014;28;20061;-68
2024/03/31 11:30:14;;;;;;;25.58;4.57;;;;;;;;;;5029646;28;20118;-67
2024/03/31 11:32:41;;;;;;;9.13;4.45;;;;;;;;;;5004978;28;20125;-67
2024/03/31 11:35:10;;;;;;;18.08;4.97;;;;;;;;;;5002894;28;20210;-67
2024/03/31 11:37:41;;;;;;;15.98;5.28;;;;;;;;;;5024416;28;20049;-67
2024/03/31 11:40:11;;;;;;;21.17;5.28;;;;;;;;;;5002300;28;20062;-67
2024/03/31 11:42:38;;;;;;;19.83;5.28;;;;;;;;;;4958912;28;20248;-69
2024/03/31 11:45:05;;;;;;;12.88;5.18;;;;;;;;;;5026481;28;20187;-68
2024/03/31 11:47:32;;;;;;;21.55;4.93;;;;;;;;;;5038684;28;20049;-67
2024/03/31 11:49:58;;;;;;;18.67;5.93;;;;;;;;;;5022228;28;20073;-68
2024/03/31 11:52:25;;;;;;;11.45;4.22;;;;;;;;;;5004923;28;20179;-71
2024/03/31 11:54:54;;;;;;;21.02;5.07;;;;;;;;;;5009542;28;20053;-67
2024/03/31 11:57:23;;;;;;;20.98;5.88;;;;;;;;;;5002586;28;20142;-67
2024/03/31 11:59:54;;;;;;;16.52;5.20;;;;;;;;;;5028645;28;20187;-66
2024/03/31 12:02:21;;;;;;;16.23;4.55;;;;;;;;;;4991303;28;20064;-66
2024/03/31 12:04:52;;;;;;;16.63;4.25;;;;;;;;;;5025729;28;20184;-67
2024/03/31 12:07:19;;;;;;;17.73;3.60;;;;;;;;;;5019559;28;20053;-67
2024/03/31 12:09:47;;;;;;;19.83;4.43;;;;;;;;;;5022109;28;20048;-67
2024/03/31 12:12:20;;;;;;;16.50;4.17;;;;;;;;;;4994442;28;20159;-70
2024/03/31 12:14:46;;;;;;;9.98;3.15;;;;;;;;;;5031025;28;20226;-68
2024/03/31 12:17:14;;;;;;;22.83;5.13;;;;;;;;;;5022940;28;20049;-66
2024/03/31 12:19:42;;;;;;;10.70;3.63;;;;;;;;;;5021088;28;20380;-68
2024/03/31 12:22:14;;;;;;;11.45;3.00;;;;;;;;;;4981960;28;20061;-71
2024/03/31 12:24:40;;;;;;;9.80;3.78;;;;;;;;;;4993712;28;20072;-69
2024/03/31 12:27:07;;;;;;;21.27;8.43;;;;;;;;;;5003592;28;20055;-71
2024/03/31 12:29:43;;;;;;;10.90;2.97;;;;;;;;;;5018305;28;20056;-68
2024/03/31 12:32:10;;;;;;;13.40;3.35;;;;;;;;;;5003104;28;20056;-67
2024/03/31 12:34:36;;;;;;;10.05;2.55;;;;;;;;;;5017282;28;20056;-68
2024/03/31 12:37:04;;;;;;;13.70;3.60;;;;;;;;;;5042757;28;20125;-69
2024/03/31 12:39:32;;;;;;;7.25;2.30;;;;;;;;;;5019285;28;20059;-68
2024/03/31 12:41:59;;;;;;;14.63;3.17;;;;;;;;;;5013802;28;20056;-68
2024/03/31 12:44:24;;;;;;;8.70;2.58;;;;;;;;;;5008918;28;20139;-68
2024/03/31 12:46:53;;;;;;;14.82;2.78;;;;;;;;;;5024412;28;20052;-68
2024/03/31 12:49:22;;;;;;;;;;;;;;;;;;5022727;28;20146;-69
2024/03/31 12:51:53;;;;;;;9.57;2.75;;;;;;;;;;5045754;28;20117;-69
2024/03/31 12:54:20;;;;;;;8.90;3.42;;;;;;;;;;5008293;28;20053;-68
2024/03/31 12:56:47;;;;;;;28.10;12.95;;;;;;;;;;5023251;28;20057;-70
2024/03/31 12:59:13;;;;;;;7.70;2.60;;;;;;;;;;5043839;28;20080;-66
2024/03/31 13:01:40;;;;;;;12.60;2.35;;;;;;;;;;5038752;28;20902;-69
2024/03/31 13:04:07;;;;;;;16.23;2.35;;;;;;;;;;5027916;28;20145;-67
2024/03/31 13:06:34;;;;;;;13.48;2.17;;;;;;;;;;5041587;28;20065;-67
2024/03/31 13:09:01;;;;;;;8.52;1.98;;;;;;;;;;5019735;28;20049;-67
2024/03/31 13:11:27;;;;;;;8.88;2.15;;;;;;;;;;5036218;28;20145;-66
2024/03/31 13:14:02;;;;;;;6.88;1.85;;;;;;;;;;5002487;28;20083;-66
2024/03/31 13:16:31;;;;;;;10.60;2.13;;;;;;;;;;5028969;28;20056;-66
2024/03/31 13:19:00;;;;;;;10.85;1.85;;;;;;;;;;5021792;28;20061;-66
2024/03/31 13:21:27;;;;;;;8.20;1.90;;;;;;;;;;5018592;28;20088;-66
2024/03/31 13:23:54;;;;;;;17.38;2.30;;;;;;;;;;5013972;28;20118;-66
2024/03/31 13:26:20;;;;;;;9.07;1.98;;;;;;;;;;5023867;28;20053;-66
2024/03/31 13:28:47;;;;;;;5.63;2.00;;;;;;;;;;5037661;28;20063;-68
2024/03/31 13:31:16;;;;;;;9.60;1.90;;;;;;;;;;5021351;28;20059;-66
2024/03/31 13:33:43;;;;;;;10.43;2.65;;;;;;;;;;4977913;28;20150;-66
2024/03/31 13:36:09;;;;;;;5.10;1.90;;;;;;;;;;5042323;28;20060;-66
2024/03/31 13:38:41;;;;;;;14.63;4.22;;;;;;;;;;5045767;28;20061;-67
2024/03/31 13:41:07;;;;;;;8.45;2.17;;;;;;;;;;5026697;28;20150;-67
2024/03/31 13:43:35;;;;;;;8.88;2.08;;;;;;;;;;5025231;28;20059;-65
2024/03/31 13:46:01;;;;;;;10.13;2.13;;;;;;;;;;5046007;28;20048;-65
2024/03/31 13:48:27;;;;;;;12.88;2.25;;;;;;;;;;5048193;28;20044;-65
2024/03/31 13:50:53;;;;;;;7.82;1.90;;;;;;;;;;5052715;28;20113;-65
2024/03/31 13:53:23;;;;;;;8.43;1.90;;;;;;;;;;5017520;28;20044;-66
2024/03/31 13:55:53;;;;;;;8.70;1.63;;;;;;;;;;5044561;28;20097;-66
2024/03/31 13:58:33;;;;;;;11.00;2.17;;;;;;;;;;5040606;28;20048;-70
2024/03/31 14:01:14;;;;;;;8.63;1.77;;;;;;;;;;5040604;28;20044;-67
2024/03/31 14:03:52;;;;;;;16.17;2.10;;;;;;;;;;4936957;28;20087;-66
2024/03/31 14:06:17;;;;;;;10.18;1.92;;;;;;;;;;5030926;28;20105;-67
2024/03/31 14:08:44;;;;;;;17.65;2.03;;;;;;;;;;5054585;28;20068;-66
2024/03/31 14:11:12;;;;;;;7.22;1.90;;;;;;;;;;5053158;28;20059;-67
2024/03/31 14:13:40;;;;;;;9.90;1.87;;;;;;;;;;5056876;28;20053;-67
2024/03/31 14:16:06;;;;;;;6.75;1.45;;;;;;;;;;5049439;28;20067;-70
2024/03/31 14:18:33;;;;;;;11.43;2.55;;;;;;;;;;5062549;28;20076;-66
2024/03/31 14:20:58;;;;;;;9.52;1.83;;;;;;;;;;5042758;28;20165;-66
2024/03/31 14:23:26;;;;;;;14.35;2.55;;;;;;;;;;5029139;28;20076;-66
2024/03/31 14:25:55;;;;;;;8.05;1.88;;;;;;;;;;5056557;28;20060;-67
2024/03/31 14:28:24;;;;;;;10.00;1.90;;;;;;;;;;5042167;28;20056;-66
2024/03/31 14:30:50;;;;;;;;;;;;;;;;;;5037158;28;20056;-66
2024/03/31 14:33:21;;;;;;;9.48;2.17;;;;;;;;;;5034918;28;19999;-65
2024/03/31 14:35:47;;;;;;;9.05;2.05;;;;;;;;;;5064827;28;20055;-64
2024/03/31 14:38:14;;;;;;;4.68;1.73;;;;;;;;;;5038624;28;20052;-67
2024/03/31 14:40:39;;;;;;;6.63;1.50;;;;;;;;;;5061700;28;20060;-67